Time,TemperatureF,DewpointF,PressureIn,WindDirection,WindDirectionDegrees,WindSpeedMPH,WindSpeedGustMPH,Humidity,HourlyPrecipIn,Conditions,Clouds,dailyrainin,SoftwareType,DateUTC
2013-07-13 00:12:00,65.0,61.0,-100.00,ESE,115,0.0,0.0,86,0.00,,,-99.99,,2013-07-13 04:12:00,
2013-07-13 00:22:00,64.0,60.0,-100.00,ESE,115,0.0,0.0,87,0.00,,,-99.99,,2013-07-13 04:22:00,
2013-07-13 00:32:00,64.0,60.0,-100.00,ESE,120,0.0,0.0,87,0.00,,,-99.99,,2013-07-13 04:32:00,
2013-07-13 00:52:00,64.0,60.0,-100.00,East,90,0.0,0.0,89,0.00,,,-99.99,,2013-07-13 04:52:00,
2013-07-13 01:01:00,63.0,60.0,-100.00,East,100,0.0,0.0,89,0.00,,,-99.99,,2013-07-13 05:01:00,
2013-07-13 01:42:00,63.0,60.0,-100.00,SE,130,0.0,0.0,89,0.00,,,-99.99,,2013-07-13 05:42:00,
2013-07-13 01:52:00,63.0,60.0,-100.00,SE,130,0.0,0.0,89,0.00,,,-99.99,,2013-07-13 05:52:00,
2013-07-13 02:11:00,62.0,59.0,-100.00,SSE,165,0.0,0.0,91,0.00,,,-99.99,,2013-07-13 06:11:00,
2013-07-13 02:22:00,62.0,59.0,-100.00,SE,125,0.0,0.0,91,0.00,,,-99.99,,2013-07-13 06:22:00,
2013-07-13 02:32:00,62.0,59.0,-100.00,SE,125,0.0,0.0,91,0.00,,,-99.99,,2013-07-13 06:32:00,
2013-07-13 02:43:00,62.0,59.0,-100.00,NE,55,0.0,0.0,91,0.00,,,-99.99,,2013-07-13 06:43:00,
2013-07-13 02:52:00,61.0,59.0,-100.00,NE,55,0.0,0.0,91,0.00,,,-99.99,,2013-07-13 06:52:00,
2013-07-13 03:11:00,61.0,59.0,-100.00,NW,305,0.0,0.0,91,0.00,,,-99.99,,2013-07-13 07:11:00,
2013-07-13 03:22:00,61.0,58.0,-100.00,NW,305,0.0,0.0,91,0.00,,,-99.99,,2013-07-13 07:22:00,
2013-07-13 04:22:00,60.0,58.0,-100.00,East,80,0.0,0.0,92,0.00,,,-99.99,,2013-07-13 08:22:00,
2013-07-13 04:33:00,60.0,58.0,-100.00,East,80,0.0,0.0,92,0.00,,,-99.99,,2013-07-13 08:33:00,
2013-07-13 05:22:00,59.0,57.0,-100.00,SE,135,0.0,0.0,92,0.00,,,-99.99,,2013-07-13 09:22:00,
2013-07-13 05:53:00,59.0,57.0,-100.00,SE,130,0.0,0.0,92,0.00,,,-99.99,,2013-07-13 09:53:00,
2013-07-13 06:11:00,59.0,57.0,-100.00,ESE,110,0.0,0.0,92,0.00,,,-99.99,,2013-07-13 10:11:00,
2013-07-13 06:22:00,58.0,56.0,-100.00,ESE,110,0.0,0.0,92,0.00,,,-99.99,,2013-07-13 10:22:00,
2013-07-13 06:43:00,59.0,57.0,-100.00,ESE,110,0.0,0.0,93,0.00,,,-99.99,,2013-07-13 10:43:00,
2013-07-13 06:52:00,59.0,57.0,-100.00,SSW,210,0.0,0.0,93,0.00,,,-99.99,,2013-07-13 10:52:00,
2013-07-13 07:02:00,58.0,56.0,-100.00,ESE,115,0.0,0.0,93,0.00,,,-99.99,,2013-07-13 11:02:00,
2013-07-13 07:11:00,59.0,57.0,-100.00,NE,40,0.0,0.0,93,0.00,,,-99.99,,2013-07-13 11:11:00,
2013-07-13 07:32:00,61.0,58.0,-100.00,East,100,0.0,0.0,93,0.00,,,-99.99,,2013-07-13 11:32:00,
2013-07-13 07:43:00,61.0,59.0,-100.00,SW,225,0.0,0.0,92,0.00,,,-99.99,,2013-07-13 11:43:00,
2013-07-13 07:52:00,63.0,60.0,-100.00,NNE,25,0.0,0.0,91,0.00,,,-99.99,,2013-07-13 11:52:00,
2013-07-13 08:12:00,66.0,63.0,-100.00,SE,125,0.0,0.0,90,0.00,,,-99.99,,2013-07-13 12:12:00,
2013-07-13 08:22:00,68.0,64.0,-100.00,SSE,150,0.0,0.0,86,0.00,,,-99.99,,2013-07-13 12:22:00,
2013-07-13 08:32:00,68.0,64.0,-100.00,SSE,150,0.0,0.0,86,0.00,,,-99.99,,2013-07-13 12:32:00,
2013-07-13 09:53:00,74.0,62.0,-100.00,SSW,210,1.0,2.0,66,0.00,,,-99.99,,2013-07-13 13:53:00,
2013-07-13 10:11:00,77.0,65.0,-100.00,East,90,2.0,82.0,66,0.00,,,-99.99,,2013-07-13 14:11:00,
2013-07-13 10:22:00,77.0,65.0,-100.00,East,90,2.0,82.0,66,0.00,,,-99.99,,2013-07-13 14:22:00,
2013-07-13 10:32:00,77.0,64.0,-100.00,SW,230,1.0,8.0,63,0.00,,,-99.99,,2013-07-13 14:32:00,
2013-07-13 10:43:00,77.0,64.0,-100.00,SW,215,1.0,4.0,65,0.00,,,-99.99,,2013-07-13 14:43:00,
2013-07-13 11:12:00,78.0,65.0,-100.00,SW,235,0.0,6.0,66,0.00,,,-99.99,,2013-07-13 15:12:00,
2013-07-13 12:22:00,81.0,65.0,-100.00,SSW,200,1.0,6.0,57,0.00,,,-99.99,,2013-07-13 16:22:00,
2013-07-13 12:53:00,82.0,64.0,-100.00,North,350,1.0,5.0,55,0.00,,,-99.99,,2013-07-13 16:53:00,
2013-07-13 14:01:00,83.0,63.0,-100.00,WSW,245,1.0,4.0,52,0.00,,,-99.99,,2013-07-13 18:01:00,
2013-07-13 15:44:00,82.0,64.0,-100.00,SW,215,1.0,4.0,54,0.00,,,-99.99,,2013-07-13 19:44:00,
2013-07-13 16:01:00,81.0,68.0,-100.00,SW,215,1.0,6.0,63,0.00,,,-99.99,,2013-07-13 20:01:00,
2013-07-13 17:22:00,78.0,66.0,-100.00,SSW,205,2.0,9.0,67,0.00,,,-99.99,,2013-07-13 21:22:00,
2013-07-13 18:22:00,78.0,65.0,-100.00,South,175,2.0,6.0,64,0.00,,,-99.99,,2013-07-13 22:22:00,
2013-07-13 19:02:00,79.0,65.0,-100.00,SW,225,1.0,6.0,63,0.00,,,-99.99,,2013-07-13 23:02:00,
2013-07-13 23:02:00,69.0,66.0,-100.00,WSW,255,0.0,0.0,88,0.00,,,-99.99,,2013-07-14 03:02:00,